Time;durP1;ratioP1;P1;durP2;ratioP2;P2;SDS_P1;SDS_P2;PMS_P1;PMS_P2;Temp;Humidity;BMP_temperature;BMP_pressure;BME280_temperature;BME280_humidity;BME280_pressure;Samples;Min_cycle;Max_cycle;Signal;HPM_P1;HPM_P2
2021/05/29 00:01:23;;;;;;;5.77;5.07;;;12.10;99.90;;;;;;4157353;28;20025;-72
2021/05/29 00:03:26;;;;;;;6.80;5.10;;;12.10;99.90;;;;;;4157549;28;20046;-70
2021/05/29 00:05:27;;;;;;;6.50;5.57;;;12.10;99.90;;;;;;4157239;28;20064;-69
2021/05/29 00:07:28;;;;;;;7.93;5.10;;;12.10;99.90;;;;;;4157268;28;20033;-70
2021/05/29 00:09:30;;;;;;;8.10;6.27;;;12.10;99.90;;;;;;4156657;28;20045;-70
2021/05/29 00:11:31;;;;;;;8.07;5.03;;;12.00;99.90;;;;;;4160382;28;20463;-70
2021/05/29 00:13:33;;;;;;;7.10;5.50;;;12.00;99.90;;;;;;4173696;28;20424;-68
2021/05/29 00:15:35;;;;;;;6.33;4.97;;;12.10;99.90;;;;;;4173695;28;20045;-66
2021/05/29 00:17:36;;;;;;;6.43;5.03;;;12.10;99.90;;;;;;4171812;28;20033;-69
2021/05/29 00:19:37;;;;;;;8.93;5.33;;;12.10;99.90;;;;;;4173746;28;20134;-69
2021/05/29 00:21:38;;;;;;;9.33;5.57;;;12.10;99.90;;;;;;4173835;28;20033;-65
2021/05/29 00:23:39;;;;;;;10.47;5.63;;;12.10;99.90;;;;;;4173253;28;20497;-71
2021/05/29 00:25:43;;;;;;;9.17;5.03;;;12.10;99.90;;;;;;4173724;28;20025;-65
2021/05/29 00:27:44;;;;;;;12.60;5.10;;;12.10;99.90;;;;;;4173917;28;20107;-65
2021/05/29 00:29:45;;;;;;;6.40;4.47;;;12.10;99.90;;;;;;4173355;28;20037;-65
2021/05/29 00:31:46;;;;;;;9.20;4.80;;;12.10;99.90;;;;;;4169533;28;20049;-69
2021/05/29 00:33:48;;;;;;;5.93;5.30;;;12.10;99.90;;;;;;4157112;28;20049;-71
2021/05/29 00:35:49;;;;;;;6.50;4.97;;;12.10;99.90;;;;;;4156987;28;20029;-69
2021/05/29 00:37:51;;;;;;;6.67;4.97;;;12.00;99.90;;;;;;4157267;28;20087;-70
2021/05/29 00:39:52;;;;;;;8.70;5.30;;;12.10;99.90;;;;;;4156023;28;20041;-72
2021/05/29 00:41:53;;;;;;;6.57;4.53;;;12.00;99.90;;;;;;4157512;28;20099;-63
2021/05/29 00:43:54;;;;;;;5.30;4.73;;;12.00;99.90;;;;;;4156689;28;20068;-72
2021/05/29 00:45:55;;;;;;;6.47;4.57;;;11.90;99.90;;;;;;4156783;28;20041;-69
2021/05/29 00:47:59;;;;;;;7.40;5.07;;;11.90;99.90;;;;;;4156465;28;20045;-69
2021/05/29 00:50:06;;;;;;;8.83;4.90;;;11.90;99.90;;;;;;4156999;28;20037;-67
2021/05/29 00:52:07;;;;;;;7.80;5.10;;;11.90;99.90;;;;;;4156599;28;20029;-70
2021/05/29 00:54:10;;;;;;;13.53;5.00;;;11.90;99.90;;;;;;4156708;28;20037;-69
2021/05/29 00:56:12;;;;;;;6.90;5.43;;;11.90;99.90;;;;;;4156585;28;20112;-69
2021/05/29 00:58:13;;;;;;;9.97;5.87;;;11.80;99.90;;;;;;4156696;28;20883;-65
2021/05/29 01:00:20;;;;;;;5.70;4.53;;;11.90;99.90;;;;;;4156623;28;20103;-70
2021/05/29 01:02:21;;;;;;;6.30;4.97;;;11.90;99.90;;;;;;4156317;28;20437;-66
2021/05/29 01:04:22;;;;;;;8.03;5.03;;;11.90;99.90;;;;;;4156524;28;20087;-67
2021/05/29 01:06:23;;;;;;;5.53;4.93;;;11.80;99.90;;;;;;4138718;28;20041;-68
2021/05/29 01:08:24;;;;;;;11.17;5.00;;;11.80;99.90;;;;;;4156129;28;20492;-69
2021/05/29 01:10:26;;;;;;;9.73;5.17;;;11.80;99.90;;;;;;4156192;28;20033;-68
2021/05/29 01:12:27;;;;;;;6.10;4.40;;;11.80;99.90;;;;;;4156427;28;20049;-71
2021/05/29 01:14:28;;;;;;;5.50;4.60;;;11.80;99.90;;;;;;4156380;28;20095;-67
2021/05/29 01:18:39;;;;;;;6.90;5.00;;;11.80;99.90;;;;;;4156962;28;20071;-70
2021/05/29 01:20:42;;;;;;;6.43;5.27;;;11.70;99.90;;;;;;4155828;28;20021;-64
2021/05/29 01:22:49;;;;;;;8.77;5.50;;;11.70;99.90;;;;;;4156031;28;20033;-66
2021/05/29 01:24:50;;;;;;;8.10;5.17;;;11.70;99.90;;;;;;4156544;28;20515;-70
2021/05/29 01:26:53;;;;;;;6.33;5.50;;;11.60;99.90;;;;;;4155565;28;20041;-68
2021/05/29 01:28:55;;;;;;;7.43;4.87;;;11.60;99.90;;;;;;4155473;28;20524;-70
2021/05/29 01:31:03;;;;;;;8.53;4.97;;;11.60;99.90;;;;;;4155959;28;20123;-67
2021/05/29 01:33:08;;;;;;;6.13;4.80;;;11.60;99.90;;;;;;4156023;28;20876;-67
2021/05/29 01:35:12;;;;;;;8.97;5.67;;;11.60;99.90;;;;;;4156117;28;20029;-71
2021/05/29 01:37:13;;;;;;;6.10;5.43;;;11.50;99.90;;;;;;4156418;28;20390;-73
2021/05/29 01:39:14;;;;;;;10.87;5.10;;;11.50;99.90;;;;;;4155812;28;20087;-69
2021/05/29 01:41:18;;;;;;;10.43;5.67;;;11.50;99.90;;;;;;4155735;28;20037;-67
2021/05/29 01:43:19;;;;;;;4.97;4.47;;;11.40;99.90;;;;;;4155925;28;20452;-71
2021/05/29 01:45:20;;;;;;;11.70;5.00;;;11.40;99.90;;;;;;4155901;28;20489;-72
2021/05/29 01:47:22;;;;;;;5.60;5.10;;;11.50;99.90;;;;;;4156129;28;20099;-67
2021/05/29 01:49:23;;;;;;;6.73;5.30;;;11.40;99.90;;;;;;4155935;28;20045;-71
2021/05/29 01:51:24;;;;;;;10.10;5.00;;;11.40;99.90;;;;;;4155843;28;20134;-68
2021/05/29 01:53:25;;;;;;;8.40;5.00;;;11.50;99.90;;;;;;4155423;28;20505;-72
2021/05/29 01:55:29;;;;;;;9.63;5.37;;;11.50;99.90;;;;;;4155955;28;20493;-70
2021/05/29 01:57:30;;;;;;;7.93;5.53;;;11.40;99.90;;;;;;4155245;28;20536;-73
2021/05/29 01:59:31;;;;;;;5.67;4.80;;;11.50;99.90;;;;;;4154884;28;20087;-71
2021/05/29 02:01:32;;;;;;;11.20;5.10;;;11.40;99.90;;;;;;4155400;28;20029;-69
2021/05/29 02:03:34;;;;;;;6.73;5.50;;;11.50;99.90;;;;;;4154049;28;20045;-72
2021/05/29 02:05:36;;;;;;;9.67;4.73;;;11.50;99.90;;;;;;4155622;28;20476;-70
2021/05/29 02:33:35;;;;;;;8.95;6.53;;;11.30;99.90;;;;;;4239294;27;20419;-61
2021/05/29 02:35:37;;;;;;;7.97;6.00;;;11.40;99.90;;;;;;4237666;27;20130;-61
2021/05/29 02:37:38;;;;;;;7.67;6.13;;;11.40;99.90;;;;;;4238713;27;20448;-61
2021/05/29 02:39:39;;;;;;;8.70;5.87;;;11.30;99.90;;;;;;4237288;28;20031;-61
2021/05/29 02:41:41;;;;;;;7.97;6.07;;;11.30;99.90;;;;;;4238397;27;20047;-61
2021/05/29 02:43:42;;;;;;;12.30;5.70;;;11.30;99.90;;;;;;4237211;28;20074;-61
2021/05/29 02:45:44;;;;;;;8.20;5.37;;;11.30;99.90;;;;;;4238863;28;20084;-62
2021/05/29 02:47:45;;;;;;;9.03;5.20;;;11.20;99.90;;;;;;4237563;27;20108;-60
2021/05/29 02:49:46;;;;;;;5.70;5.07;;;11.20;99.90;;;;;;4238505;28;20096;-62
2021/05/29 02:51:47;;;;;;;10.03;5.47;;;11.30;99.90;;;;;;4237068;27;20092;-62
2021/05/29 02:53:48;;;;;;;9.73;4.67;;;11.30;99.90;;;;;;4238258;27;20092;-62
2021/05/29 02:55:49;;;;;;;5.50;4.87;;;11.30;99.90;;;;;;4237817;27;20039;-61
2021/05/29 02:57:55;;;;;;;5.77;5.00;;;11.40;99.90;;;;;;4237296;28;20035;-61
2021/05/29 02:59:56;;;;;;;7.97;5.10;;;11.60;99.90;;;;;;4237692;28;20031;-62
2021/05/29 03:01:57;;;;;;;11.07;5.80;;;11.70;99.90;;;;;;4237598;28;20846;-62
2021/05/29 03:03:59;;;;;;;4.87;4.20;;;11.90;99.90;;;;;;4237962;27;20043;-62
2021/05/29 03:06:00;;;;;;;10.20;5.43;;;12.10;99.90;;;;;;4236849;27;20536;-62
2021/05/29 03:08:01;;;;;;;8.03;6.10;;;12.40;99.90;;;;;;4237187;27;20077;-62
2021/05/29 03:10:06;;;;;;;8.83;5.70;;;12.60;99.90;;;;;;4236781;28;20088;-62
2021/05/29 03:12:08;;;;;;;12.47;5.43;;;12.80;99.90;;;;;;4238422;27;20043;-62
2021/05/29 03:14:09;;;;;;;8.27;5.90;;;13.00;99.90;;;;;;4236504;27;20035;-62
2021/05/29 03:16:12;;;;;;;8.43;5.10;;;13.30;99.90;;;;;;4238673;27;20482;-62
2021/05/29 03:18:14;;;;;;;7.07;4.73;;;13.60;99.90;;;;;;4237077;27;20148;-62
2021/05/29 03:20:19;;;;;;;7.33;4.77;;;14.00;99.90;;;;;;4238405;27;20047;-62
2021/05/29 03:22:20;;;;;;;7.97;4.80;;;14.30;99.90;;;;;;4236412;28;20023;-61
2021/05/29 03:24:21;;;;;;;6.40;4.67;;;14.50;99.90;;;;;;4238455;27;20043;-63
2021/05/29 03:26:23;;;;;;;5.73;4.13;;;14.70;99.90;;;;;;4236918;27;20072;-62
2021/05/29 03:28:24;;;;;;;10.53;4.10;;;14.90;99.90;;;;;;4238029;27;20495;-62
2021/05/29 03:30:28;;;;;;;4.97;4.20;;;15.20;99.90;;;;;;4237214;27;20085;-62
2021/05/29 03:32:29;;;;;;;4.63;3.83;;;15.60;99.90;;;;;;4236862;27;20452;-61
2021/05/29 03:34:30;;;;;;;6.43;4.23;;;16.00;99.90;;;;;;4225823;28;20069;-62
2021/05/29 03:36:32;;;;;;;7.37;4.43;;;16.40;99.90;;;;;;4225780;27;20623;-62
2021/05/29 03:38:33;;;;;;;8.53;3.73;;;16.70;99.90;;;;;;4226429;27;20089;-62
2021/05/29 03:40:34;;;;;;;7.15;3.72;;;17.00;99.90;;;;;;4225112;28;20040;-63
2021/05/29 03:42:36;;;;;;;5.28;3.60;;;17.10;99.90;;;;;;4226420;27;20043;-62
2021/05/29 03:44:37;;;;;;;5.45;3.50;;;17.20;99.90;;;;;;4225401;28;20108;-62
2021/05/29 03:46:38;;;;;;;5.32;3.03;;;17.30;99.90;;;;;;4226091;27;20109;-62
2021/05/29 03:48:39;;;;;;;3.70;2.97;;;17.50;99.90;;;;;;4223129;28;20031;-62
2021/05/29 03:50:40;;;;;;;4.50;3.20;;;17.60;99.90;;;;;;4226262;27;20044;-62
2021/05/29 03:52:42;;;;;;;5.82;3.08;;;17.90;99.90;;;;;;4224962;28;20044;-62
2021/05/29 03:54:44;;;;;;;5.15;3.08;;;18.30;99.90;;;;;;4226597;28;20085;-62
2021/05/29 03:56:46;;;;;;;3.08;2.75;;;18.70;99.90;;;;;;4224683;28;21499;-62
2021/05/29 03:58:47;;;;;;;6.13;2.72;;;19.10;99.90;;;;;;4225798;28;20032;-64
2021/05/29 04:00:48;;;;;;;3.65;2.72;;;19.40;99.90;;;;;;4222976;28;20023;-63
2021/05/29 04:02:50;;;;;;;8.98;2.78;;;19.30;99.90;;;;;;4226058;27;20035;-62
2021/05/29 04:04:51;;;;;;;4.30;2.50;;;19.30;99.90;;;;;;4225377;28;20088;-62
2021/05/29 04:06:52;;;;;;;2.88;2.55;;;19.30;99.90;;;;;;4225212;28;20094;-62
2021/05/29 04:08:53;;;;;;;3.22;2.42;;;18.90;99.90;;;;;;4226227;27;20120;-63
2021/05/29 04:10:54;;;;;;;4.50;2.70;;;18.50;99.90;;;;;;4225270;27;20036;-62
2021/05/29 04:12:57;;;;;;;5.90;2.40;;;18.60;99.90;;;;;;4225796;28;20039;-62
2021/05/29 04:14:58;;;;;;;4.30;2.60;;;18.70;99.90;;;;;;4224880;28;20801;-63
2021/05/29 04:17:00;;;;;;;4.57;2.58;;;18.90;99.90;;;;;;4225762;28;20527;-62
2021/05/29 04:19:02;;;;;;;4.97;2.58;;;19.20;99.90;;;;;;4219767;28;20068;-64
2021/05/29 04:21:04;;;;;;;6.53;2.55;;;19.10;99.90;;;;;;4225699;28;20085;-63
2021/05/29 04:23:05;;;;;;;2.70;2.10;;;18.90;99.90;;;;;;4224410;28;20020;-63
2021/05/29 04:25:10;;;;;;;2.50;2.30;;;18.80;99.90;;;;;;4225882;28;20028;-63
2021/05/29 04:27:11;;;;;;;4.13;2.33;;;18.70;99.90;;;;;;4224001;28;20053;-63
2021/05/29 04:29:12;;;;;;;5.88;2.50;;;18.60;99.90;;;;;;4225736;28;20032;-69
2021/05/29 04:31:14;;;;;;;6.70;2.55;;;18.70;99.90;;;;;;4224239;28;20035;-62
2021/05/29 04:33:15;;;;;;;7.45;2.60;;;19.10;99.90;;;;;;4225049;28;20706;-64
2021/05/29 04:35:17;;;;;;;3.33;2.10;;;19.70;99.90;;;;;;4223101;28;20044;-66
2021/05/29 04:37:18;;;;;;;6.03;2.35;;;20.20;99.90;;;;;;4224613;28;20020;-63
2021/05/29 04:39:19;;;;;;;6.45;2.17;;;20.70;99.90;;;;;;4224551;28;20031;-63
2021/05/29 04:41:21;;;;;;;7.50;2.20;;;21.10;99.30;;;;;;4224610;27;20092;-71
2021/05/29 04:43:22;;;;;;;5.63;2.38;;;21.30;98.20;;;;;;4224904;27;20043;-63
2021/05/29 04:45:24;;;;;;;5.90;2.28;;;21.60;97.20;;;;;;4222582;27;20043;-63
2021/05/29 04:47:27;;;;;;;7.25;2.40;;;22.00;96.30;;;;;;4224972;28;20027;-63
2021/05/29 04:49:29;;;;;;;6.10;2.17;;;22.20;95.20;;;;;;4223647;28;20843;-63
2021/05/29 04:51:30;;;;;;;4.75;1.98;;;22.10;94.10;;;;;;4223812;28;20035;-63
2021/05/29 04:53:32;;;;;;;6.25;2.33;;;22.00;93.70;;;;;;4223856;28;20375;-64
2021/05/29 04:55:33;;;;;;;8.50;2.30;;;21.90;93.80;;;;;;4225270;28;20081;-63
2021/05/29 04:57:34;;;;;;;8.48;2.28;;;21.80;93.60;;;;;;4223892;27;20044;-61
2021/05/29 04:59:35;;;;;;;3.47;2.20;;;21.50;93.50;;;;;;4225188;28;20467;-62
2021/05/29 05:01:38;;;;;;;5.57;2.15;;;21.20;93.60;;;;;;4223873;27;20727;-63
2021/05/29 05:03:40;;;;;;;3.80;2.08;;;20.70;94.30;;;;;;4224142;28;20664;-66
2021/05/29 05:05:41;;;;;;;8.45;2.17;;;20.40;94.70;;;;;;4223290;28;20109;-62
2021/05/29 05:07:42;;;;;;;4.18;2.17;;;20.00;95.40;;;;;;4222765;28;20027;-62
2021/05/29 05:09:43;;;;;;;6.40;2.22;;;19.90;95.90;;;;;;4222267;27;20062;-62
2021/05/29 05:11:44;;;;;;;8.80;2.28;;;20.00;95.90;;;;;;4223516;27;20040;-62
2021/05/29 05:13:45;;;;;;;6.20;2.28;;;20.20;95.50;;;;;;4223727;28;20574;-62
2021/05/29 05:15:47;;;;;;;3.70;1.95;;;20.00;95.50;;;;;;4223076;28;20023;-61
2021/05/29 05:17:48;;;;;;;8.27;2.05;;;20.00;95.80;;;;;;4224290;28;20044;-62
2021/05/29 05:19:49;;;;;;;3.30;2.13;;;20.00;96.00;;;;;;4222711;28;20104;-61
2021/05/29 05:21:50;;;;;;;2.30;2.10;;;19.90;96.30;;;;;;4224103;27;20500;-62
2021/05/29 05:23:54;;;;;;;3.80;2.30;;;20.20;96.10;;;;;;4218654;28;20054;-64
2021/05/29 05:25:55;;;;;;;7.78;2.20;;;20.30;95.60;;;;;;4208282;28;20024;-62
2021/05/29 05:27:56;;;;;;;2.58;2.28;;;20.20;95.60;;;;;;4206090;28;20032;-63
2021/05/29 05:29:57;;;;;;;3.92;2.00;;;20.20;95.80;;;;;;4207471;28;20086;-62
2021/05/29 05:31:58;;;;;;;5.80;2.85;;;20.10;95.90;;;;;;4205882;28;20070;-62
2021/05/29 05:34:07;;;;;;;6.63;2.47;;;20.10;95.80;;;;;;4206878;28;20077;-61
2021/05/29 05:36:09;;;;;;;5.00;2.92;;;19.90;96.10;;;;;;4206015;28;20532;-62
2021/05/29 05:38:10;;;;;;;4.32;1.88;;;20.10;96.20;;;;;;4206989;28;20096;-63
2021/05/29 05:40:12;;;;;;;5.07;2.15;;;20.40;95.70;;;;;;4206936;28;20086;-62
2021/05/29 05:42:13;;;;;;;4.85;2.10;;;20.70;95.20;;;;;;4204571;28;20044;-63
2021/05/29 05:44:14;;;;;;;2.42;2.22;;;21.00;94.50;;;;;;4206169;28;20454;-61
2021/05/29 05:46:16;;;;;;;6.10;2.03;;;20.90;94.00;;;;;;4205615;28;20024;-63
2021/05/29 05:48:18;;;;;;;5.38;2.00;;;20.70;94.30;;;;;;4206526;28;20491;-62
2021/05/29 05:50:19;;;;;;;2.60;1.90;;;21.00;94.50;;;;;;4205642;28;20088;-63
2021/05/29 05:52:20;;;;;;;3.25;2.10;;;21.50;93.70;;;;;;4206787;28;20040;-61
2021/05/29 05:54:21;;;;;;;5.60;2.28;;;21.60;93.10;;;;;;4206832;28;20089;-62
2021/05/29 05:56:26;;;;;;;4.82;2.83;;;21.60;93.20;;;;;;4210623;28;20120;-62
2021/05/29 05:58:31;;;;;;;3.00;1.77;;;22.10;92.50;;;;;;4222699;28;20084;-62
2021/05/29 06:00:32;;;;;;;2.78;2.03;;;22.60;91.60;;;;;;4210714;28;20530;-62
2021/05/29 06:02:34;;;;;;;2.40;1.98;;;22.80;91.00;;;;;;4207250;28;20092;-62
2021/05/29 06:04:35;;;;;;;3.10;1.75;;;22.50;90.50;;;;;;4219324;28;20442;-63
2021/05/29 06:06:36;;;;;;;4.55;2.28;;;22.40;90.90;;;;;;4205365;28;20082;-62
2021/05/29 06:08:37;;;;;;;3.25;1.90;;;22.60;90.80;;;;;;4207165;28;20035;-62
2021/05/29 06:10:39;;;;;;;3.08;2.33;;;22.50;90.40;;;;;;4205946;28;20066;-62
2021/05/29 06:12:44;;;;;;;4.18;2.22;;;22.70;90.40;;;;;;4206162;28;20060;-62
2021/05/29 06:19:26;;;;;;;2.08;1.88;;;22.70;90.40;;;;;;4222391;28;20051;-66
2021/05/29 06:21:27;;;;;;;5.05;2.42;;;23.60;89.40;;;;;;4223274;28;20096;-62
2021/05/29 06:23:28;;;;;;;2.75;1.80;;;23.80;86.80;;;;;;4222446;28;20413;-63
2021/05/29 06:25:29;;;;;;;6.43;2.00;;;23.70;86.40;;;;;;4223545;28;20028;-67
2021/05/29 06:27:32;;;;;;;5.32;2.03;;;23.70;85.70;;;;;;4222466;28;20065;-63
2021/05/29 06:29:33;;;;;;;3.92;2.20;;;24.00;85.50;;;;;;4213354;28;20532;-62
2021/05/29 06:31:35;;;;;;;3.85;2.20;;;23.60;84.40;;;;;;4206563;28;20035;-65
2021/05/29 06:33:36;;;;;;;2.78;1.85;;;23.40;84.90;;;;;;4205139;28;20101;-60
2021/05/29 06:35:37;;;;;;;1.73;1.63;;;23.70;85.00;;;;;;4206611;28;20093;-63
2021/05/29 06:37:38;;;;;;;4.60;2.00;;;24.00;83.80;;;;;;4205615;28;20477;-63
2021/05/29 06:39:39;;;;;;;6.50;2.10;;;23.90;83.30;;;;;;4206572;28;20097;-62
2021/05/29 06:41:42;;;;;;;3.33;2.08;;;24.20;83.00;;;;;;4205367;28;20044;-62
2021/05/29 06:43:43;;;;;;;2.42;1.83;;;24.10;82.20;;;;;;4210189;28;20028;-70
2021/05/29 06:45:44;;;;;;;3.25;2.30;;;23.70;83.00;;;;;;4205232;28;20078;-63
2021/05/29 06:47:45;;;;;;;2.88;2.20;;;23.60;83.80;;;;;;4206407;28;20398;-62
2021/05/29 06:49:46;;;;;;;5.07;2.20;;;23.80;83.70;;;;;;4211975;28;20028;-62
2021/05/29 06:51:59;;;;;;;4.15;2.63;;;23.70;83.20;;;;;;4222809;28;20039;-65
2021/05/29 06:54:05;;;;;;;5.90;2.10;;;23.60;83.60;;;;;;4221723;28;20445;-62
2021/05/29 06:58:49;;;;;;;8.10;3.55;;;23.10;84.80;;;;;;4222171;28;20031;-62
2021/05/29 07:00:47;;;;;;;3.60;2.38;;;23.00;84.90;;;;;;4223079;28;20028;-61
2021/05/29 07:02:48;;;;;;;2.70;1.73;;;23.20;85.70;;;;;;4221742;28;20043;-62
2021/05/29 07:04:51;;;;;;;3.60;2.40;;;23.30;84.00;;;;;;4223110;28;20043;-63
2021/05/29 07:06:52;;;;;;;5.68;2.60;;;23.30;83.60;;;;;;4221163;28;20356;-62
2021/05/29 07:08:56;;;;;;;2.05;1.80;;;23.10;83.30;;;;;;4224849;28;20488;-62
2021/05/29 07:10:57;;;;;;;13.57;3.40;;;23.10;84.10;;;;;;4225702;27;20031;-62
2021/05/29 07:12:58;;;;;;;8.18;2.30;;;22.70;84.20;;;;;;4225948;28;20092;-61
2021/05/29 07:15:01;;;;;;;2.97;2.28;;;22.40;84.70;;;;;;4225814;28;20043;-62
2021/05/29 07:17:04;;;;;;;10.77;3.58;;;21.80;86.00;;;;;;4224321;28;20040;-62
2021/05/29 07:19:05;;;;;;;4.78;2.38;;;21.30;87.90;;;;;;4226138;27;20048;-63
2021/05/29 07:21:06;;;;;;;4.55;2.20;;;21.50;88.50;;;;;;4223574;28;20089;-61
2021/05/29 07:23:08;;;;;;;11.45;7.22;;;21.50;88.50;;;;;;4225951;28;20451;-63
2021/05/29 07:25:10;;;;;;;3.83;2.88;;;21.70;88.80;;;;;;4225006;28;20028;-60
2021/05/29 07:27:11;;;;;;;3.60;2.53;;;22.10;88.70;;;;;;4225880;28;20546;-62
2021/05/29 07:29:13;;;;;;;3.20;2.35;;;22.50;86.90;;;;;;4224421;27;20043;-62
2021/05/29 07:31:15;;;;;;;4.00;2.13;;;22.40;85.90;;;;;;4226071;28;20364;-64
2021/05/29 07:33:17;;;;;;;3.45;2.15;;;22.30;86.70;;;;;;4224421;27;20078;-63
2021/05/29 07:35:18;;;;;;;3.08;2.42;;;22.30;86.90;;;;;;4226157;27;20039;-62
2021/05/29 07:37:19;;;;;;;4.93;2.45;;;22.30;86.20;;;;;;4224553;28;20107;-62
2021/05/29 07:39:20;;;;;;;7.93;3.38;;;22.30;85.70;;;;;;4225822;28;20040;-62
2021/05/29 07:41:21;;;;;;;7.10;2.72;;;22.00;86.70;;;;;;4224141;28;20120;-63
2021/05/29 07:43:22;;;;;;;6.32;2.85;;;22.00;87.10;;;;;;4219140;27;20040;-62
2021/05/29 07:45:24;;;;;;;4.38;2.70;;;21.90;87.90;;;;;;4207620;28;20044;-63
2021/05/29 07:47:25;;;;;;;7.07;2.47;;;22.00;88.60;;;;;;4217517;28;20501;-62
2021/05/29 07:49:26;;;;;;;4.82;2.22;;;21.90;88.90;;;;;;4214282;28;20028;-63
2021/05/29 07:51:27;;;;;;;2.72;2.10;;;21.80;89.10;;;;;;4207781;28;20089;-62
2021/05/29 07:53:49;;;;;;;6.63;2.53;;;21.90;88.60;;;;;;4208588;28;20553;-62
2021/05/29 07:55:50;;;;;;;10.88;3.20;;;22.20;86.40;;;;;;4206490;28;20108;-64
2021/05/29 07:57:51;;;;;;;6.40;2.60;;;22.20;86.20;;;;;;4208036;28;20077;-63
2021/05/29 07:59:53;;;;;;;2.85;1.83;;;22.20;86.40;;;;;;4207420;28;20034;-61
2021/05/29 08:01:54;;;;;;;7.72;2.80;;;22.00;86.10;;;;;;4208324;28;20036;-62
2021/05/29 08:03:55;;;;;;;12.75;3.13;;;21.50;86.30;;;;;;4207154;28;20852;-61
2021/05/29 08:05:57;;;;;;;5.00;2.78;;;21.50;87.80;;;;;;4208332;28;20086;-61
2021/05/29 08:07:58;;;;;;;2.85;2.10;;;21.70;87.90;;;;;;4205350;28;20105;-61
2021/05/29 08:09:59;;;;;;;10.20;2.70;;;21.50;86.70;;;;;;4208560;28;20093;-61
2021/05/29 08:12:00;;;;;;;6.57;3.08;;;21.10;86.30;;;;;;4206575;28;20054;-61
2021/05/29 08:14:02;;;;;;;3.72;2.25;;;20.80;86.90;;;;;;4207942;28;20402;-62
2021/05/29 08:16:03;;;;;;;11.30;3.78;;;20.50;87.80;;;;;;4207056;28;20089;-62
2021/05/29 08:18:04;;;;;;;4.35;2.55;;;20.30;88.50;;;;;;4206553;28;20032;-61
2021/05/29 08:20:06;;;;;;;2.47;1.75;;;20.30;88.30;;;;;;4206993;28;20155;-61
2021/05/29 08:22:07;;;;;;;3.65;2.55;;;20.20;88.30;;;;;;4207135;28;20036;-61
2021/05/29 08:24:09;;;;;;;5.05;2.40;;;20.30;88.10;;;;;;4207125;28;20306;-63
2021/05/29 08:26:11;;;;;;;6.05;2.75;;;20.70;87.90;;;;;;4206661;28;20415;-60
2021/05/29 08:28:12;;;;;;;8.98;4.10;;;20.90;86.70;;;;;;4206461;28;20089;-60
2021/05/29 08:30:14;;;;;;;10.25;4.40;;;21.00;86.60;;;;;;4205542;28;20061;-61
2021/05/29 08:32:15;;;;;;;8.48;3.85;;;21.00;86.60;;;;;;4207351;28;20447;-61
2021/05/29 08:34:16;;;;;;;5.47;2.58;;;20.90;86.50;;;;;;4206172;28;20520;-64
2021/05/29 08:36:17;;;;;;;11.23;7.18;;;21.10;86.80;;;;;;4207376;28;20497;-61
2021/05/29 08:38:18;;;;;;;5.43;3.03;;;21.10;85.90;;;;;;4206496;28;20036;-61
2021/05/29 08:40:21;;;;;;;8.90;3.90;;;21.10;86.10;;;;;;4208315;28;20619;-61
2021/05/29 08:42:22;;;;;;;14.13;4.20;;;20.90;87.00;;;;;;4207069;28;20038;-61
2021/05/29 08:44:24;;;;;;;5.38;2.65;;;21.00;88.10;;;;;;4207614;28;20036;-62
2021/05/29 08:46:25;;;;;;;6.60;2.47;;;21.10;85.90;;;;;;4206626;28;20101;-61
2021/05/29 08:48:26;;;;;;;6.00;2.88;;;21.00;84.50;;;;;;4207225;28;20040;-62
2021/05/29 08:50:28;;;;;;;9.90;4.20;;;21.00;84.30;;;;;;4206830;28;20481;-62
2021/05/29 08:52:35;;;;;;;12.45;4.00;;;20.60;83.10;;;;;;4207522;28;20620;-61
2021/05/29 08:54:36;;;;;;;7.38;3.78;;;20.20;82.60;;;;;;4207294;28;20124;-62
2021/05/29 08:56:38;;;;;;;7.38;3.80;;;20.20;83.40;;;;;;4206937;28;20809;-61
2021/05/29 08:58:39;;;;;;;8.30;3.65;;;20.30;83.50;;;;;;4207351;28;20051;-61
2021/05/29 09:00:43;;;;;;;3.60;2.80;;;20.20;83.50;;;;;;4206481;28;20089;-66
2021/05/29 09:02:56;;;;;;;5.72;2.95;;;20.10;83.90;;;;;;4207772;28;20036;-62
2021/05/29 09:05:08;;;;;;;12.02;2.90;;;20.10;84.00;;;;;;4204899;28;20044;-61
2021/05/29 09:07:24;;;;;;;7.88;3.22;;;19.90;82.90;;;;;;4208035;28;20535;-64
2021/05/29 09:09:26;;;;;;;6.45;3.05;;;20.10;82.80;;;;;;4223458;28;20032;-61
2021/05/29 09:11:40;;;;;;;6.97;2.92;;;20.30;83.30;;;;;;4224009;28;20028;-61
2021/05/29 09:13:41;;;;;;;6.25;3.40;;;20.20;81.70;;;;;;4223093;28;20039;-64
2021/05/29 09:16:04;;;;;;;4.28;2.70;;;20.20;83.30;;;;;;4223455;28;20036;-58
2021/05/29 09:18:06;;;;;;;9.05;2.28;;;20.50;83.30;;;;;;4221081;27;20039;-61
2021/05/29 09:20:10;;;;;;;4.43;2.10;;;20.60;82.00;;;;;;4219760;27;20105;-61
2021/05/29 09:22:11;;;;;;;4.18;2.70;;;20.70;81.80;;;;;;4206091;28;20066;-62
2021/05/29 09:24:15;;;;;;;3.45;2.90;;;20.70;82.40;;;;;;4207517;28;20032;-62
2021/05/29 09:26:20;;;;;;;5.70;2.72;;;20.80;83.70;;;;;;4206439;28;20517;-61
2021/05/29 09:28:25;;;;;;;2.75;2.03;;;21.00;84.10;;;;;;4207978;28;20093;-60
2021/05/29 09:30:48;;;;;;;2.80;2.03;;;20.90;82.90;;;;;;4206611;28;20048;-62
2021/05/29 09:32:49;;;;;;;5.82;2.55;;;20.70;84.20;;;;;;4207184;28;20125;-61
2021/05/29 09:34:56;;;;;;;14.95;3.63;;;20.60;85.10;;;;;;4220067;28;20096;-59
2021/05/29 09:37:11;;;;;;;3.72;2.22;;;20.70;86.40;;;;;;4224287;28;20072;-59
2021/05/29 09:39:19;;;;;;;4.18;1.60;;;20.90;83.90;;;;;;4223377;28;20417;-61
2021/05/29 09:41:27;;;;;;;5.82;1.92;;;21.00;81.90;;;;;;4224467;28;20036;-60
2021/05/29 09:43:28;;;;;;;5.60;2.97;;;21.00;83.10;;;;;;4222757;28;20044;-60
2021/05/29 09:45:31;;;;;;;6.97;2.38;;;21.20;82.90;;;;;;4224337;27;20039;-61
2021/05/29 09:47:32;;;;;;;2.55;2.00;;;21.40;82.20;;;;;;4222961;28;20070;-60
2021/05/29 09:49:42;;;;;;;5.82;2.47;;;21.50;80.80;;;;;;4224012;27;20043;-62
2021/05/29 09:51:43;;;;;;;4.20;2.95;;;21.60;77.00;;;;;;4222211;28;20057;-61
2021/05/29 09:53:50;;;;;;;3.42;2.63;;;21.40;77.30;;;;;;4223810;28;20035;-62
2021/05/29 09:55:51;;;;;;;3.78;2.10;;;21.40;77.70;;;;;;4222895;27;20048;-61
2021/05/29 09:57:57;;;;;;;2.15;1.90;;;21.60;78.20;;;;;;4224339;28;20663;-63
2021/05/29 10:00:05;;;;;;;3.65;2.10;;;21.40;75.40;;;;;;4221985;28;20120;-60
2021/05/29 10:02:10;;;;;;;3.33;2.30;;;21.30;75.50;;;;;;4223453;28;20031;-62
2021/05/29 10:04:42;;;;;;;2.15;1.73;;;21.30;75.90;;;;;;4222416;28;20031;-59
2021/05/29 10:07:01;;;;;;;4.10;1.67;;;21.40;76.60;;;;;;4223709;28;20032;-69
2021/05/29 10:09:05;;;;;;;6.25;1.90;;;21.40;76.50;;;;;;4205559;28;20054;-60
2021/05/29 10:11:06;;;;;;;4.75;2.45;;;21.50;76.90;;;;;;4207405;28;20020;-61
2021/05/29 10:13:07;;;;;;;4.72;1.90;;;21.40;76.70;;;;;;4205669;28;20541;-63
2021/05/29 10:15:11;;;;;;;5.78;2.75;;;21.20;77.30;;;;;;4207126;28;20387;-63
2021/05/29 10:17:14;;;;;;;10.02;2.67;;;21.10;77.30;;;;;;4212332;28;20019;-64
2021/05/29 10:19:20;;;;;;;7.47;2.15;;;20.80;77.60;;;;;;4222793;28;20039;-64
2021/05/29 10:21:22;;;;;;;14.35;2.47;;;20.70;78.90;;;;;;4221767;28;20362;-60
2021/05/29 10:23:23;;;;;;;2.67;1.85;;;21.00;79.50;;;;;;4221697;28;20483;-61
2021/05/29 10:25:25;;;;;;;3.33;1.90;;;21.10;79.60;;;;;;4222254;28;20019;-61
2021/05/29 10:27:29;;;;;;;6.07;2.05;;;21.00;78.80;;;;;;4214134;28;20043;-65
2021/05/29 10:29:31;;;;;;;3.17;2.22;;;21.00;79.50;;;;;;4207538;28;20039;-61
2021/05/29 10:31:36;;;;;;;2.83;2.17;;;21.00;80.40;;;;;;4205431;28;20812;-62
2021/05/29 10:33:45;;;;;;;1.85;1.35;;;21.30;80.70;;;;;;4206346;28;20047;-60
2021/05/29 10:35:46;;;;;;;3.28;1.67;;;21.40;79.30;;;;;;4205220;28;20117;-60
2021/05/29 10:37:54;;;;;;;3.00;2.72;;;21.60;79.50;;;;;;4206780;28;20097;-61
2021/05/29 10:40:16;;;;;;;1.88;1.48;;;21.60;79.50;;;;;;4204961;28;20414;-61
2021/05/29 10:42:30;;;;;;;2.75;1.90;;;21.80;79.60;;;;;;4206382;28;20086;-61
2021/05/29 10:44:41;;;;;;;2.90;1.70;;;21.90;78.70;;;;;;4207412;28;20028;-61
2021/05/29 10:47:15;;;;;;;2.35;1.77;;;21.70;78.70;;;;;;4210052;28;20537;-61
2021/05/29 10:49:54;;;;;;;8.45;2.00;;;21.20;77.90;;;;;;4211602;28;20032;-61
2021/05/29 10:51:55;;;;;;;11.93;5.60;;;20.80;79.00;;;;;;4224679;28;20032;-60
2021/05/29 10:53:57;;;;;;;2.90;1.58;;;20.80;80.70;;;;;;4226411;27;20140;-61
2021/05/29 10:56:16;;;;;;;1.60;1.50;;;20.80;80.40;;;;;;4225411;28;20032;-61
2021/05/29 10:58:17;;;;;;;54.47;23.80;;;20.70;79.10;;;;;;4226359;28;20036;-62
2021/05/29 11:00:40;;;;;;;12.15;3.72;;;20.70;80.60;;;;;;4225319;28;20268;-60
2021/05/29 11:02:41;;;;;;;20.95;3.05;;;20.40;80.10;;;;;;4226510;27;20539;-60
2021/05/29 11:04:42;;;;;;;6.30;2.13;;;20.20;82.10;;;;;;4225003;27;20031;-61
2021/05/29 11:06:52;;;;;;;9.63;2.55;;;20.00;82.70;;;;;;4226867;27;20039;-61
2021/05/29 11:08:55;;;;;;;3.10;2.45;;;19.80;82.00;;;;;;4225620;28;20072;-60
2021/05/29 11:10:56;;;;;;;5.72;2.92;;;19.50;83.00;;;;;;4222135;28;20453;-61
2021/05/29 11:12:57;;;;;;;3.30;2.15;;;19.60;83.90;;;;;;4226014;28;20097;-62
2021/05/29 11:14:59;;;;;;;3.55;1.70;;;19.70;83.80;;;;;;4225333;28;20055;-62